Time;durP1;ratioP1;P1;durP2;ratioP2;P2;SDS_P1;SDS_P2;PMS_P1;PMS_P2;Temp;Humidity;BMP_temperature;BMP_pressure;BME280_temperature;BME280_humidity;BME280_pressure;Samples;Min_cycle;Max_cycle;Signal;HPM_P1;HPM_P2
2021/06/24 00:02:00;;;;;;;10.90;9.90;;;;;;;17.22;78.85;100371.25;10467837;28;20120;-70
2021/06/24 00:07:02;;;;;;;11.15;10.35;;;;;;;17.08;80.37;100364.88;10450268;28;20076;-70
2021/06/24 00:12:04;;;;;;;15.43;14.02;;;;;;;16.97;82.23;100353.13;10467444;28;20037;-70
2021/06/24 00:17:06;;;;;;;13.35;12.23;;;;;;;16.91;82.54;100335.75;10467192;28;20049;-70
2021/06/24 00:22:07;;;;;;;12.20;10.98;;;;;;;16.93;80.41;100317.91;10468784;28;20135;-70
2021/06/24 00:27:09;;;;;;;12.20;11.30;;;;;;;17.03;79.74;100315.63;10466994;28;20498;-71
2021/06/24 00:32:11;;;;;;;12.77;11.80;;;;;;;16.95;81.13;100316.00;10467276;28;20041;-71
2021/06/24 00:37:13;;;;;;;11.98;10.82;;;;;;;16.97;81.10;100308.84;10465852;28;20049;-70
2021/06/24 00:42:16;;;;;;;12.48;11.52;;;;;;;16.89;82.23;100311.91;10465082;28;20405;-71
2021/06/24 00:47:17;;;;;;;16.38;15.07;;;;;;;16.82;83.41;100310.53;10465186;28;20055;-71
2021/06/24 00:52:20;;;;;;;18.05;16.40;;;;;;;16.61;84.63;100306.31;10465646;28;20037;-71
2021/06/24 00:57:24;;;;;;;16.67;15.27;;;;;;;16.40;85.05;100281.75;10463666;28;20090;-70
2021/06/24 01:02:26;;;;;;;15.60;14.20;;;;;;;16.42;83.70;100274.56;10464347;28;20033;-71
2021/06/24 01:07:28;;;;;;;14.07;12.98;;;;;;;16.63;82.80;100256.66;10464202;28;20517;-71
2021/06/24 01:12:50;;;;;;;16.50;13.60;;;;;;;16.44;83.53;100224.09;10449626;28;20441;-69
2021/06/24 01:17:54;;;;;;;15.88;14.45;;;;;;;16.18;84.25;100140.56;10462822;28;20045;-70
2021/06/24 01:22:56;;;;;;;17.13;15.40;;;;;;;16.07;84.80;100131.41;10462814;28;20052;-70
2021/06/24 01:28:00;;;;;;;15.07;13.88;;;;;;;16.15;84.47;100144.22;10444612;28;20053;-69
2021/06/24 01:33:05;;;;;;;16.15;14.90;;;;;;;16.25;83.83;100176.47;10461818;28;20380;-70
2021/06/24 01:38:10;;;;;;;18.55;16.52;;;;;;;16.06;85.21;100198.59;10462058;28;20091;-70
2021/06/24 01:43:27;;;;;;;16.70;15.07;;;;;;;16.06;84.67;100219.81;10461785;28;20065;-70
2021/06/24 01:48:29;;;;;;;16.90;15.27;;;;;;;16.01;83.61;100205.94;10445156;28;20135;-71
2021/06/24 01:53:34;;;;;;;18.58;17.17;;;;;;;15.87;85.51;100196.06;10461446;28;20052;-70
2021/06/24 01:58:39;;;;;;;14.63;13.55;;;;;;;15.82;84.48;100181.34;10460176;28;20051;-70
2021/06/24 02:03:59;;;;;;;13.90;12.73;;;;;;;16.01;84.30;100200.66;10461877;28;20053;-70
2021/06/24 02:09:02;;;;;;;14.45;13.40;;;;;;;16.05;83.14;100212.81;10462933;28;20105;-70
2021/06/24 02:14:42;;;;;;;15.88;14.77;;;;;;;15.95;83.76;100214.22;10447147;28;20061;-70
2021/06/24 02:19:45;;;;;;;16.35;14.75;;;;;;;15.78;84.53;100206.28;10460843;28;20049;-71
2021/06/24 02:24:56;;;;;;;17.73;16.10;;;;;;;15.73;85.41;100208.31;10459282;28;20065;-70
2021/06/24 02:30:05;;;;;;;16.25;14.88;;;;;;;15.79;84.17;100224.75;10459295;28;20049;-71
2021/06/24 02:35:09;;;;;;;17.17;15.88;;;;;;;15.79;83.99;100226.53;10458503;28;20045;-71
2021/06/24 02:40:25;;;;;;;16.10;14.82;;;;;;;15.70;84.19;100234.94;10459012;28;20045;-70
2021/06/24 02:45:29;;;;;;;23.35;18.33;;;;;;;15.52;85.91;100255.22;10458431;28;20060;-70
2021/06/24 02:50:31;;;;;;;18.15;16.75;;;;;;;15.54;85.89;100256.03;10459697;28;20112;-71
2021/06/24 02:55:43;;;;;;;23.95;17.75;;;;;;;15.47;85.57;100249.28;10460346;28;20040;-71
2021/06/24 03:00:47;;;;;;;20.17;18.70;;;;;;;15.39;85.94;100249.66;10458609;28;20052;-70
2021/06/24 03:06:15;;;;;;;20.33;18.17;;;;;;;15.43;85.71;100258.31;10410784;28;20052;-70
2021/06/24 03:11:18;;;;;;;17.38;16.08;;;;;;;15.46;84.71;100250.22;10458320;28;20097;-70
2021/06/24 03:16:26;;;;;;;20.42;17.42;;;;;;;15.61;84.29;100237.06;10442086;28;20402;-71
2021/06/24 03:21:28;;;;;;;18.35;16.95;;;;;;;15.42;84.90;100227.47;10441911;28;20551;-70
2021/06/24 03:26:31;;;;;;;19.33;17.52;;;;;;;15.30;85.73;100223.63;10458869;28;20072;-71
2021/06/24 03:31:42;;;;;;;20.65;18.92;;;;;;;15.29;85.52;100208.66;10457387;28;20535;-70
2021/06/24 03:36:44;;;;;;;20.63;18.85;;;;;;;15.25;85.47;100213.25;10457242;28;20529;-71
2021/06/24 03:41:48;;;;;;;22.83;20.77;;;;;;;15.19;85.63;100228.59;10457797;28;20033;-70
2021/06/24 03:46:57;;;;;;;21.02;19.38;;;;;;;15.20;86.43;100238.25;10458008;28;20402;-71
2021/06/24 03:51:59;;;;;;;23.10;21.23;;;;;;;15.16;85.83;100236.66;10457619;28;20049;-71
2021/06/24 03:57:03;;;;;;;24.42;21.92;;;;;;;15.16;86.95;100263.16;10457856;28;20045;-71
2021/06/24 04:02:15;;;;;;;24.05;21.75;;;;;;;15.11;86.42;100284.53;10427430;28;20045;-71
2021/06/24 04:07:19;;;;;;;23.40;21.17;;;;;;;15.26;85.78;100285.59;10458411;28;20049;-72
2021/06/24 04:12:22;;;;;;;22.02;20.38;;;;;;;15.20;86.38;100265.56;10459186;28;20043;-71
2021/06/24 04:17:33;;;;;;;25.50;23.77;;;;;;;15.03;86.83;100258.41;10459599;28;20391;-71
2021/06/24 04:22:37;;;;;;;24.75;23.20;;;;;;;15.07;87.21;100261.78;10456847;28;20044;-71
2021/06/24 04:27:58;;;;;;;25.88;24.15;;;;;;;15.17;86.52;100267.50;10458921;28;20132;-72
2021/06/24 04:33:01;;;;;;;24.08;22.17;;;;;;;15.27;86.71;100266.13;10439867;28;20045;-71
2021/06/24 04:38:26;;;;;;;23.08;21.33;;;;;;;15.51;85.30;100264.13;10457178;28;20056;-71
2021/06/24 04:43:27;;;;;;;22.08;20.50;;;;;;;15.42;85.48;100254.81;10465471;28;20112;-71
2021/06/24 04:48:30;;;;;;;22.13;20.60;;;;;;;15.44;85.08;100260.88;10463076;28;20049;-72
2021/06/24 04:53:52;;;;;;;25.15;23.42;;;;;;;15.31;86.00;100271.19;10465438;28;20461;-72
2021/06/24 04:58:57;;;;;;;26.33;23.73;;;;;;;15.36;85.64;100268.34;10465004;28;20065;-73
2021/06/24 05:04:36;;;;;;;24.20;22.55;;;;;;;15.45;85.21;100269.69;10464153;28;20076;-73
2021/06/24 05:09:39;;;;;;;25.88;23.85;;;;;;;15.41;85.27;100271.66;10462744;28;20055;-72
2021/06/24 05:14:41;;;;;;;25.98;24.30;;;;;;;15.47;84.69;100267.84;10464004;28;20041;-75
2021/06/24 05:19:43;;;;;;;25.30;23.50;;;;;;;15.51;84.72;100280.00;10463665;28;20049;-73
2021/06/24 05:24:45;;;;;;;27.05;25.15;;;;;;;15.36;85.09;100279.81;10462833;28;20052;-73
2021/06/24 05:29:46;;;;;;;28.05;25.95;;;;;;;15.22;86.32;100273.44;10463346;28;20045;-72
2021/06/24 05:34:48;;;;;;;26.80;25.00;;;;;;;15.22;86.55;100269.00;10462905;28;20049;-73
2021/06/24 05:39:51;;;;;;;29.35;27.10;;;;;;;15.33;86.26;100282.59;10462341;28;20487;-73
2021/06/24 05:44:52;;;;;;;26.35;24.25;;;;;;;15.37;85.63;100285.97;10463924;28;20044;-72
2021/06/24 05:49:54;;;;;;;29.58;27.30;;;;;;;15.36;86.17;100289.53;10463829;28;20094;-72
2021/06/24 05:54:55;;;;;;;28.60;25.90;;;;;;;15.61;85.41;100300.66;10462350;28;20041;-72
2021/06/24 05:59:58;;;;;;;24.13;22.50;;;;;;;15.89;83.26;100294.94;10463157;28;20072;-73
2021/06/24 06:05:00;;;;;;;25.92;23.95;;;;;;;15.61;84.79;100297.16;10463603;28;20049;-73
2021/06/24 06:10:02;;;;;;;25.08;23.25;;;;;;;15.88;83.54;100302.94;10463303;28;20045;-73
2021/06/24 06:15:05;;;;;;;26.85;24.67;;;;;;;15.79;84.28;100292.78;10463493;28;20128;-72
2021/06/24 06:20:07;;;;;;;29.25;26.88;;;;;;;15.74;84.10;100289.50;10446962;28;20076;-73
2021/06/24 06:25:09;;;;;;;27.40;25.50;;;;;;;15.91;83.22;100272.78;10465645;28;20048;-73
2021/06/24 06:30:11;;;;;;;30.60;27.92;;;;;;;15.79;84.29;100279.53;10462230;28;20048;-73
2021/06/24 06:35:13;;;;;;;31.20;28.83;;;;;;;15.73;84.73;100264.81;10460612;28;20057;-72
2021/06/24 06:40:14;;;;;;;28.98;26.85;;;;;;;15.99;82.64;100275.91;10460671;28;20045;-73
2021/06/24 06:45:18;;;;;;;27.85;25.13;;;;;;;16.23;82.01;100265.84;10443922;28;20437;-72
2021/06/24 06:50:20;;;;;;;28.58;26.63;;;;;;;16.46;81.27;100276.13;10461665;28;20045;-73
2021/06/24 06:55:28;;;;;;;27.33;25.27;;;;;;;16.86;79.18;100279.34;10443968;28;20037;-73
2021/06/24 07:00:33;;;;;;;27.23;25.08;;;;;;;16.95;78.59;100281.50;10460566;28;20103;-72
2021/06/24 07:05:35;;;;;;;26.90;24.98;;;;;;;17.01;78.39;100283.84;10460768;28;20044;-74
2021/06/24 07:10:37;;;;;;;31.27;28.90;;;;;;;16.56;80.95;100289.78;10460399;28;20053;-73
2021/06/24 07:15:39;;;;;;;31.15;29.02;;;;;;;16.72;80.23;100287.16;10460311;28;20148;-72
2021/06/24 07:20:42;;;;;;;32.22;29.73;;;;;;;16.60;80.49;100299.28;10460374;28;20049;-73
2021/06/24 07:25:44;;;;;;;31.77;29.17;;;;;;;16.55;80.89;100301.31;10459937;28;20041;-73
2021/06/24 07:30:47;;;;;;;28.90;27.10;;;;;;;16.53;80.57;100297.91;10460085;28;20412;-73
2021/06/24 07:35:49;;;;;;;31.48;29.35;;;;;;;16.55;80.09;100296.84;10458837;28;20041;-73
2021/06/24 07:40:51;;;;;;;32.63;30.02;;;;;;;16.65;80.81;100305.22;10460056;28;20056;-73
2021/06/24 07:45:52;;;;;;;31.77;29.05;;;;;;;16.50;81.03;100306.84;10460182;28;20049;-73
2021/06/24 07:50:54;;;;;;;27.88;25.92;;;;;;;16.92;79.58;100299.41;10459572;28;20045;-73
2021/06/24 07:55:56;;;;;;;30.73;28.42;;;;;;;16.73;79.30;100295.06;10458317;28;20095;-73
2021/06/24 08:00:57;;;;;;;27.38;25.52;;;;;;;16.81;80.09;100295.50;10460547;28;20041;-73
2021/06/24 08:06:02;;;;;;;29.50;27.23;;;;;;;16.60;79.91;100291.31;10460278;28;20041;-73
2021/06/24 08:11:04;;;;;;;28.40;26.35;;;;;;;16.80;79.96;100285.00;10459065;28;20044;-73
2021/06/24 08:16:06;;;;;;;27.20;25.20;;;;;;;17.22;78.56;100272.97;10445007;28;20039;-73
2021/06/24 08:21:08;;;;;;;29.25;27.42;;;;;;;17.22;76.95;100267.66;10465012;28;20418;-74
2021/06/24 08:26:10;;;;;;;28.30;26.33;;;;;;;17.38;77.22;100282.66;10468046;28;20072;-74
2021/06/24 08:31:11;;;;;;;28.20;26.35;;;;;;;17.58;77.37;100278.88;10466086;28;20060;-74
2021/06/24 08:36:13;;;;;;;26.88;24.80;;;;;;;18.21;74.54;100277.06;10468119;28;20033;-74
2021/06/24 08:41:17;;;;;;;26.98;25.05;;;;;;;18.53;72.65;100285.78;10466407;28;20414;-74
2021/06/24 08:46:20;;;;;;;24.88;22.67;;;;;;;18.49;74.01;100282.44;10468845;28;20037;-73
2021/06/24 08:51:22;;;;;;;27.05;24.90;;;;;;;18.92;72.02;100274.50;10468441;28;20048;-73
2021/06/24 08:56:24;;;;;;;24.45;22.88;;;;;;;19.15;71.00;100273.03;10467084;28;20048;-74
2021/06/24 09:01:54;;;;;;;21.80;20.45;;;;;;;19.76;69.01;100278.94;10467167;28;20068;-74
2021/06/24 09:07:10;;;;;;;21.83;20.38;;;;;;;19.93;67.92;100278.66;10467316;28;20036;-74
2021/06/24 09:12:11;;;;;;;23.00;21.15;;;;;;;19.76;68.10;100276.25;10467140;28;20048;-75
2021/06/24 09:17:36;;;;;;;23.00;21.55;;;;;;;19.57;68.84;100281.91;10468095;28;20073;-73
2021/06/24 09:22:38;;;;;;;21.88;20.55;;;;;;;19.76;67.84;100281.59;10465998;28;20128;-73
2021/06/24 09:27:47;;;;;;;21.27;19.92;;;;;;;19.73;69.67;100279.13;10462875;28;20045;-73
2021/06/24 09:32:48;;;;;;;19.55;18.40;;;;;;;20.00;68.37;100279.94;10464733;28;20131;-73
2021/06/24 09:38:07;;;;;;;17.60;16.40;;;;;;;20.19;66.11;100287.59;10464685;28;20044;-73
2021/06/24 09:43:22;;;;;;;15.75;14.75;;;;;;;19.49;68.49;100273.56;10464206;28;20060;-73
2021/06/24 09:48:52;;;;;;;17.42;15.98;;;;;;;19.89;67.46;100272.66;10463837;28;20045;-72
2021/06/24 09:53:57;;;;;;;18.02;16.90;;;;;;;19.71;70.86;100279.22;10461736;28;20065;-72
2021/06/24 09:59:03;;;;;;;19.83;18.25;;;;;;;19.28;70.39;100275.78;10463071;28;20055;-72
2021/06/24 10:04:19;;;;;;;21.27;19.35;;;;;;;19.42;69.29;100278.41;10464131;28;20092;-73
2021/06/24 10:09:22;;;;;;;19.05;17.55;;;;;;;19.55;70.37;100279.34;10462781;28;20101;-72
2021/06/24 10:14:24;;;;;;;18.08;16.95;;;;;;;19.75;70.91;100288.75;10461859;28;20380;-72
2021/06/24 10:19:41;;;;;;;18.90;17.83;;;;;;;19.90;68.68;100279.72;10463801;28;20065;-72
2021/06/24 10:24:52;;;;;;;18.77;17.67;;;;;;;19.58;70.23;100276.47;10462639;28;20421;-72
2021/06/24 10:29:54;;;;;;;19.00;17.80;;;;;;;20.51;66.26;100273.88;10463421;28;20041;-73
2021/06/24 10:34:59;;;;;;;18.63;17.10;;;;;;;20.40;66.63;100270.09;10463334;28;20103;-73
2021/06/24 10:40:22;;;;;;;15.52;14.43;;;;;;;21.16;64.88;100260.31;10464470;28;20147;-73
2021/06/24 10:45:25;;;;;;;16.83;15.82;;;;;;;21.20;64.19;100248.44;10460779;28;20033;-72
2021/06/24 10:50:29;;;;;;;14.65;13.35;;;;;;;21.45;63.64;100247.56;10461418;28;20044;-72
2021/06/24 10:55:36;;;;;;;13.85;13.00;;;;;;;21.44;62.63;100245.84;10461870;28;20044;-72
2021/06/24 11:00:39;;;;;;;17.15;15.52;;;;;;;21.28;63.56;100247.91;10462648;28;20087;-71
2021/06/24 11:05:43;;;;;;;15.02;14.00;;;;;;;21.10;62.71;100253.63;10461256;28;20053;-72
2021/06/24 11:11:06;;;;;;;14.20;13.25;;;;;;;20.64;66.55;100259.56;10458962;28;20139;-73
2021/06/24 11:16:20;;;;;;;13.02;11.80;;;;;;;20.72;65.76;100264.38;10460903;28;20052;-72
2021/06/24 11:21:29;;;;;;;13.48;12.57;;;;;;;20.65;66.63;100260.41;10442012;28;20055;-72
2021/06/24 11:26:34;;;;;;;11.93;11.13;;;;;;;20.75;64.56;100255.28;10459143;28;20048;-72
2021/06/24 11:37:13;;;;;;;10.27;9.48;;;;;;;22.04;59.91;100247.56;10441308;28;20098;-71
2021/06/24 11:42:17;;;;;;;9.35;8.68;;;;;;;22.31;61.18;100254.47;10459010;28;20454;-72
2021/06/24 11:47:28;;;;;;;9.80;9.10;;;;;;;21.71;61.24;100259.00;10459750;28;20056;-72
2021/06/24 12:03:21;;;;;;;9.38;8.65;;;;;;;21.60;60.09;100234.84;10448261;28;20491;-72
2021/06/24 12:08:24;;;;;;;9.65;8.95;;;;;;;21.02;63.38;100236.41;10467002;28;20079;-72
2021/06/24 12:13:35;;;;;;;8.05;7.35;;;;;;;22.58;62.34;100235.44;10466318;28;20033;-73
2021/06/24 12:18:39;;;;;;;8.57;7.80;;;;;;;23.01;58.82;100227.53;10466110;28;20045;-72
2021/06/24 12:23:46;;;;;;;7.72;7.20;;;;;;;22.74;57.49;100219.84;10466195;28;20052;-71
2021/06/24 12:28:47;;;;;;;9.55;8.80;;;;;;;22.52;58.89;100220.69;10464997;28;20075;-73
2021/06/24 12:33:51;;;;;;;10.02;8.90;;;;;;;21.75;60.30;100225.69;10465192;28;20073;-72
2021/06/24 12:38:53;;;;;;;9.25;8.63;;;;;;;22.67;59.96;100224.00;10466661;28;20033;-71
2021/06/24 12:44:03;;;;;;;8.80;8.10;;;;;;;22.98;59.40;100221.59;10445224;28;20041;-73
2021/06/24 12:49:15;;;;;;;9.18;8.27;;;;;;;23.24;57.01;100219.44;10459309;28;20052;-72
2021/06/24 12:54:18;;;;;;;7.70;7.10;;;;;;;23.18;56.63;100220.81;10459040;28;20463;-72
2021/06/24 12:59:22;;;;;;;8.25;7.43;;;;;;;23.16;57.88;100223.63;10461163;28;20091;-72
2021/06/24 13:04:28;;;;;;;7.07;6.40;;;;;;;23.70;56.39;100234.47;10462886;28;20040;-72
2021/06/24 13:09:31;;;;;;;;;;;;;;;22.75;58.20;100223.38;10463456;28;20047;-71
2021/06/24 13:14:39;;;;;;;11.23;8.48;;;;;;;22.48;58.69;100215.69;10462968;28;19921;-73
2021/06/24 13:19:52;;;;;;;11.65;9.27;;;;;;;21.81;60.53;100227.06;10463395;28;20098;-72
2021/06/24 13:24:57;;;;;;;9.40;8.70;;;;;;;21.68;61.51;100235.16;10412157;28;1007439;-71
2021/06/24 13:30:02;;;;;;;10.43;9.50;;;;;;;21.35;62.02;100233.16;10465002;28;20052;-72
2021/06/24 13:35:28;;;;;;;9.18;8.27;;;;;;;21.67;61.31;100218.25;10464587;28;20045;-71
2021/06/24 13:40:45;;;;;;;10.07;9.13;;;;;;;21.86;60.75;100198.13;10429859;28;20144;-71
2021/06/24 13:45:49;;;;;;;9.43;8.65;;;;;;;21.79;61.25;100186.19;10462744;28;20274;-72
2021/06/24 13:50:50;;;;;;;10.32;9.52;;;;;;;21.97;60.82;100167.88;10462891;28;20037;-72
2021/06/24 13:55:53;;;;;;;9.93;8.95;;;;;;;22.29;60.17;100178.78;10464406;28;20082;-73
2021/06/24 14:00:54;;;;;;;10.90;10.10;;;;;;;22.29;59.83;100194.84;10445511;28;20048;-71
2021/06/24 14:05:57;;;;;;;8.60;7.90;;;;;;;23.10;58.86;100199.13;10464868;28;20491;-72
2021/06/24 14:11:02;;;;;;;8.10;7.47;;;;;;;23.10;58.12;100208.00;10465649;28;20496;-73
2021/06/24 14:16:04;;;;;;;8.40;7.60;;;;;;;22.16;60.35;100208.34;10462327;28;20061;-73
2021/06/24 14:21:10;;;;;;;8.07;7.43;;;;;;;21.88;60.74;100217.59;10463573;28;20506;-72
2021/06/24 14:26:13;;;;;;;7.72;7.10;;;;;;;21.79;60.55;100220.97;10464402;28;20359;-72
2021/06/24 14:31:15;;;;;;;8.98;7.97;;;;;;;21.80;60.97;100212.81;10464043;28;20107;-71
2021/06/24 14:36:18;;;;;;;7.85;7.25;;;;;;;21.72;61.19;100219.72;10461838;28;20076;-71
2021/06/24 14:41:20;;;;;;;8.10;7.40;;;;;;;21.44;62.34;100232.47;10445547;28;20106;-71
2021/06/24 14:46:21;;;;;;;8.88;8.27;;;;;;;21.06;63.88;100217.38;10462329;28;20059;-72
2021/06/24 14:51:23;;;;;;;8.32;7.47;;;;;;;20.87;63.80;100219.69;10461827;28;20044;-72
2021/06/24 14:56:25;;;;;;;10.43;9.63;;;;;;;20.98;62.31;100225.09;10460228;28;20041;-72
2021/06/24 15:01:26;;;;;;;8.60;7.88;;;;;;;20.99;62.99;100208.13;10464000;28;20041;-71
2021/06/24 15:06:28;;;;;;;9.02;6.75;;;;;;;20.96;63.09;100194.97;10462666;28;20132;-72
2021/06/24 15:11:30;;;;;;;9.02;8.23;;;;;;;20.99;62.50;100188.56;10462970;28;20068;-72
2021/06/24 15:16:32;;;;;;;8.75;7.90;;;;;;;21.09;62.51;100170.88;10462072;28;20041;-71
2021/06/24 15:27:00;;;;;;;7.43;6.93;;;;;;;20.99;62.96;100092.34;10374264;28;20046;-73
2021/06/24 15:32:02;;;;;;;7.18;6.57;;;;;;;21.07;62.76;100085.47;10417239;28;20129;-71
2021/06/24 15:37:05;;;;;;;7.22;6.70;;;;;;;21.40;62.55;100137.41;10416083;28;20042;-72
2021/06/24 15:42:09;;;;;;;8.23;7.18;;;;;;;21.30;62.21;100158.59;10416087;28;20041;-72
2021/06/24 15:47:10;;;;;;;7.75;6.18;;;;;;;22.05;60.09;100136.88;10415996;28;20060;-71
2021/06/24 15:52:12;;;;;;;7.65;6.95;;;;;;;21.97;59.30;100123.22;10416203;28;20099;-73
2021/06/24 15:57:14;;;;;;;6.70;6.10;;;;;;;22.35;58.91;100117.53;10416121;28;20033;-71
2021/06/24 16:02:16;;;;;;;7.15;6.50;;;;;;;22.33;58.14;100099.91;10415655;28;20041;-71
2021/06/24 16:07:18;;;;;;;7.25;6.65;;;;;;;22.27;59.21;100090.53;10416155;28;20041;-71
2021/06/24 16:12:20;;;;;;;7.53;6.85;;;;;;;22.02;59.12;100082.72;10397093;28;20057;-70
2021/06/24 16:17:21;;;;;;;6.88;6.38;;;;;;;22.16;59.01;100082.50;10414212;28;20051;-69
2021/06/24 16:22:23;;;;;;;7.75;7.15;;;;;;;21.95;59.93;100084.16;10413380;28;20100;-69
2021/06/24 16:27:25;;;;;;;7.70;7.13;;;;;;;21.55;60.10;100087.25;10413414;28;20065;-70
2021/06/24 16:32:26;;;;;;;8.73;7.93;;;;;;;21.29;60.95;100089.19;10413880;28;20045;-70
2021/06/24 16:37:28;;;;;;;8.45;6.82;;;;;;;21.37;61.63;100090.34;10417521;28;20091;-70
2021/06/24 16:42:30;;;;;;;7.32;6.78;;;;;;;20.98;62.18;100096.81;10421674;28;20148;-69
2021/06/24 16:47:31;;;;;;;7.25;6.65;;;;;;;20.84;62.47;100083.63;10421535;28;20491;-70
2021/06/24 16:52:34;;;;;;;7.65;6.95;;;;;;;20.98;62.37;100099.50;10421029;28;20049;-70
2021/06/24 16:57:36;;;;;;;8.10;7.60;;;;;;;20.78;62.32;100094.78;10419839;28;20030;-70
2021/06/24 17:02:37;;;;;;;7.15;6.55;;;;;;;20.52;63.51;100099.34;10402169;28;20056;-68
2021/06/24 17:07:41;;;;;;;7.30;6.70;;;;;;;20.27;63.79;100100.19;10402241;28;20557;-69
2021/06/24 17:12:46;;;;;;;7.22;6.72;;;;;;;20.26;63.88;100098.50;10420308;28;20053;-70
2021/06/24 17:17:48;;;;;;;6.87;5.87;;;;;;;20.41;63.25;100100.94;10420278;28;20046;-69
2021/06/24 17:22:50;;;;;;;7.10;6.50;;;;;;;20.33;62.85;100103.31;10420328;28;20041;-69
2021/06/24 17:27:52;;;;;;;6.00;5.60;;;;;;;20.40;62.22;100107.22;10419704;28;20137;-69
2021/06/24 17:32:54;;;;;;;6.97;6.47;;;;;;;20.23;62.45;100101.38;10420230;28;20124;-69
2021/06/24 17:37:56;;;;;;;6.57;6.07;;;;;;;20.13;62.91;100110.03;10420466;28;20096;-69
2021/06/24 17:42:58;;;;;;;6.45;5.03;;;;;;;20.08;63.22;100104.16;10419996;28;20041;-69
2021/06/24 17:47:59;;;;;;;6.07;5.05;;;;;;;20.07;63.07;100113.13;10417016;28;20482;-70
2021/06/24 17:53:01;;;;;;;8.70;4.82;;;;;;;19.75;63.71;100103.84;10401021;28;20056;-70
2021/06/24 17:58:05;;;;;;;4.93;4.63;;;;;;;19.78;62.45;100111.63;10418533;28;20475;-70
2021/06/24 18:03:08;;;;;;;5.82;5.35;;;;;;;19.77;63.27;100123.25;10417891;28;20091;-70
2021/06/24 18:08:10;;;;;;;6.10;5.63;;;;;;;19.63;63.06;100137.53;10418469;28;20046;-70
2021/06/24 18:13:13;;;;;;;6.15;5.65;;;;;;;19.57;63.30;100136.13;10420137;28;20125;-70
2021/06/24 18:18:15;;;;;;;5.95;5.30;;;;;;;19.40;63.35;100131.06;10415535;28;20037;-70
2021/06/24 18:23:16;;;;;;;5.15;4.75;;;;;;;19.40;64.37;100125.72;10417750;28;20128;-70
2021/06/24 18:28:18;;;;;;;6.72;6.13;;;;;;;19.39;64.19;100138.22;10417646;28;20132;-70
2021/06/24 18:33:20;;;;;;;6.28;5.78;;;;;;;19.32;64.87;100133.38;10420112;28;20057;-70
2021/06/24 18:38:22;;;;;;;6.03;5.53;;;;;;;19.48;64.80;100117.19;10420859;28;20041;-70
2021/06/24 18:43:23;;;;;;;6.25;5.75;;;;;;;19.23;64.96;100120.66;10418357;28;20049;-69
2021/06/24 18:48:25;;;;;;;5.45;5.05;;;;;;;19.27;64.35;100132.84;10418509;28;20049;-72
2021/06/24 18:53:27;;;;;;;4.00;3.70;;;;;;;19.39;64.11;100142.69;10399424;28;20529;-69
2021/06/24 18:58:29;;;;;;;4.65;4.18;;;;;;;19.37;64.38;100133.91;10398770;28;20052;-70
2021/06/24 19:03:30;;;;;;;5.00;4.60;;;;;;;19.33;64.09;100143.06;10417454;28;20037;-72
2021/06/24 19:08:32;;;;;;;5.40;4.90;;;;;;;19.16;64.65;100149.50;10419010;28;20111;-70
2021/06/24 19:13:34;;;;;;;4.72;4.32;;;;;;;19.22;64.12;100143.81;10418123;28;20585;-69
2021/06/24 19:18:36;;;;;;;4.50;4.00;;;;;;;19.42;63.26;100177.13;10397873;28;20057;-70
2021/06/24 19:23:37;;;;;;;4.95;4.55;;;;;;;19.40;62.75;100195.88;10415565;28;20103;-70
2021/06/24 19:28:39;;;;;;;5.28;4.88;;;;;;;19.08;64.29;100179.34;10416213;28;20534;-70
2021/06/24 19:33:41;;;;;;;4.75;4.30;;;;;;;19.07;63.99;100171.44;10415231;28;20053;-70
2021/06/24 19:38:42;;;;;;;4.53;4.13;;;;;;;19.11;64.21;100165.81;10415746;28;20045;-70
2021/06/24 19:43:44;;;;;;;4.70;4.30;;;;;;;19.00;64.60;100175.47;10415949;28;20045;-70
2021/06/24 19:48:50;;;;;;;5.40;4.75;;;;;;;18.75;65.53;100170.84;10415185;28;20041;-70
2021/06/24 19:53:51;;;;;;;5.17;4.87;;;;;;;18.61;66.07;100167.22;10415746;28;20042;-70
2021/06/24 19:58:55;;;;;;;6.75;5.13;;;;;;;18.75;65.57;100189.47;10414640;28;20414;-70
2021/06/24 20:03:56;;;;;;;5.43;4.93;;;;;;;18.87;65.27;100191.38;10414788;28;20057;-70
2021/06/24 20:08:59;;;;;;;5.03;4.60;;;;;;;18.94;65.24;100195.34;10414124;28;20550;-70
2021/06/24 20:14:02;;;;;;;4.93;4.53;;;;;;;18.75;66.82;100182.34;10421111;28;20053;-70
2021/06/24 20:19:05;;;;;;;5.10;4.60;;;;;;;18.63;66.99;100162.63;10423375;28;20045;-69
2021/06/24 20:24:07;;;;;;;4.65;4.35;;;;;;;18.52;67.33;100161.63;10421899;28;20048;-70
2021/06/24 20:29:08;;;;;;;4.82;4.43;;;;;;;18.54;66.94;100173.00;10421532;28;20046;-69
2021/06/24 20:34:10;;;;;;;5.05;4.70;;;;;;;18.41;67.29;100159.59;10421818;28;20047;-70
2021/06/24 20:39:12;;;;;;;5.18;4.85;;;;;;;18.29;67.75;100153.25;10421405;28;20060;-70
2021/06/24 20:44:13;;;;;;;5.55;5.15;;;;;;;18.28;67.79;100156.00;10421219;28;20128;-70
2021/06/24 20:49:15;;;;;;;6.18;5.68;;;;;;;18.18;68.25;100145.06;10420861;28;20414;-70
2021/06/24 20:54:16;;;;;;;6.30;5.78;;;;;;;18.13;68.00;100140.03;10420375;28;20044;-70
2021/06/24 20:59:18;;;;;;;7.18;6.68;;;;;;;18.01;68.84;100123.97;10421500;28;20384;-69
2021/06/24 21:04:20;;;;;;;6.28;5.78;;;;;;;17.81;69.19;100107.41;10420726;28;20046;-68
2021/06/24 21:09:21;;;;;;;6.13;5.63;;;;;;;17.83;69.74;100113.50;10421161;28;20056;-70
2021/06/24 21:14:23;;;;;;;6.90;6.30;;;;;;;18.06;69.27;100117.44;10420151;28;20111;-68
2021/06/24 21:19:24;;;;;;;7.85;7.15;;;;;;;18.32;68.47;100130.91;10419793;28;20053;-69
2021/06/24 21:24:26;;;;;;;7.40;6.72;;;;;;;18.12;69.35;100135.66;10416488;23;20068;-72
2021/06/24 21:29:28;;;;;;;6.50;5.85;;;;;;;18.14;69.67;100135.56;10445241;28;20052;-72
2021/06/24 21:34:29;;;;;;;7.63;6.93;;;;;;;18.14;70.21;100139.06;10461819;28;20098;-72
2021/06/24 21:39:31;;;;;;;8.02;7.53;;;;;;;18.22;69.79;100159.03;10462159;28;20045;-73
2021/06/24 21:44:33;;;;;;;7.63;6.95;;;;;;;18.08;70.46;100166.06;10465817;28;20055;-72
2021/06/24 21:49:34;;;;;;;6.18;5.70;;;;;;;18.13;70.60;100171.94;10465394;28;20382;-72
2021/06/24 21:54:38;;;;;;;8.40;7.78;;;;;;;18.28;70.32;100180.81;10464378;28;20056;-73
2021/06/24 21:59:39;;;;;;;8.23;7.60;;;;;;;18.10;70.60;100180.09;10461733;28;20052;-71
2021/06/24 22:04:41;;;;;;;8.98;8.30;;;;;;;18.11;71.07;100176.53;10443376;28;20399;-72
2021/06/24 22:09:42;;;;;;;8.75;8.02;;;;;;;17.91;71.77;100187.50;10461680;28;20048;-72
2021/06/24 22:14:44;;;;;;;9.43;8.63;;;;;;;17.93;72.86;100200.69;10460556;28;20052;-71
2021/06/24 22:19:45;;;;;;;9.23;8.35;;;;;;;17.91;72.42;100206.09;10461212;28;20056;-72
2021/06/24 22:24:47;;;;;;;11.38;10.48;;;;;;;17.83;73.05;100200.38;10461004;28;20048;-73
2021/06/24 22:29:49;;;;;;;9.98;9.00;;;;;;;17.81;73.02;100191.66;10461555;28;20048;-72
2021/06/24 22:34:50;;;;;;;12.55;11.65;;;;;;;17.70;73.80;100191.38;10460680;28;20041;-72
2021/06/24 22:39:52;;;;;;;11.65;10.85;;;;;;;17.57;74.60;100188.59;10462299;28;20052;-72
2021/06/24 22:44:54;;;;;;;11.63;10.73;;;;;;;17.57;74.61;100178.81;10459360;28;20049;-72
2021/06/24 22:49:56;;;;;;;12.75;11.65;;;;;;;17.63;74.05;100181.13;10460559;28;20520;-71
2021/06/24 22:54:57;;;;;;;12.13;11.13;;;;;;;17.78;73.81;100186.50;10460066;28;20045;-72
2021/06/24 22:59:59;;;;;;;13.00;11.88;;;;;;;17.61;74.02;100177.69;10460073;28;20048;-71
2021/06/24 23:05:00;;;;;;;12.60;11.68;;;;;;;17.66;74.26;100188.03;10458506;28;20103;-73
2021/06/24 23:10:03;;;;;;;12.38;11.10;;;;;;;17.51;74.55;100175.66;10459446;28;20049;-73
2021/06/24 23:15:06;;;;;;;14.13;12.70;;;;;;;17.33;75.62;100182.91;10460112;28;20041;-72
2021/06/24 23:20:08;;;;;;;12.50;11.55;;;;;;;17.42;75.50;100192.16;10440284;28;20051;-74
2021/06/24 23:25:10;;;;;;;14.40;13.40;;;;;;;17.33;75.57;100198.84;10458693;28;20079;-72